sensor_id;sensor_type;location;lat;lon;timestamp;temperature;humidity
48454;DHT22;34261;55.678;12.464;2023-04-25T00:00:39;10.20;99.90
48454;DHT22;34261;55.678;12.464;2023-04-25T00:03:04;10.20;99.90
48454;DHT22;34261;55.678;12.464;2023-04-25T00:05:31;10.20;99.90
48454;DHT22;34261;55.678;12.464;2023-04-25T00:07:57;10.10;99.90
48454;DHT22;34261;55.678;12.464;2023-04-25T00:10:22;10.10;99.90
48454;DHT22;34261;55.678;12.464;2023-04-25T00:12:48;10.10;99.90
48454;DHT22;34261;55.678;12.464;2023-04-25T00:15:13;10.00;99.90
48454;DHT22;34261;55.678;12.464;2023-04-25T00:17:39;10.10;99.90
48454;DHT22;34261;55.678;12.464;2023-04-25T00:20:05;10.10;99.90
48454;DHT22;34261;55.678;12.464;2023-04-25T00:22:31;10.10;99.90
48454;DHT22;34261;55.678;12.464;2023-04-25T00:24:56;10.00;99.90
48454;DHT22;34261;55.678;12.464;2023-04-25T00:27:25;10.10;99.90
48454;DHT22;34261;55.678;12.464;2023-04-25T00:29:51;10.20;99.90
48454;DHT22;34261;55.678;12.464;2023-04-25T00:32:16;10.20;99.90
48454;DHT22;34261;55.678;12.464;2023-04-25T00:34:42;10.30;99.90
48454;DHT22;34261;55.678;12.464;2023-04-25T00:37:07;10.20;99.90
48454;DHT22;34261;55.678;12.464;2023-04-25T00:39:32;10.20;99.90
48454;DHT22;34261;55.678;12.464;2023-04-25T00:41:58;10.10;99.90
48454;DHT22;34261;55.678;12.464;2023-04-25T00:44:24;10.00;99.90
48454;DHT22;34261;55.678;12.464;2023-04-25T00:46:49;9.90;99.90
48454;DHT22;34261;55.678;12.464;2023-04-25T00:49:15;9.70;99.90
48454;DHT22;34261;55.678;12.464;2023-04-25T00:51:42;9.60;99.90
48454;DHT22;34261;55.678;12.464;2023-04-25T00:54:10;9.60;99.90
48454;DHT22;34261;55.678;12.464;2023-04-25T00:56:36;9.40;99.90
48454;DHT22;34261;55.678;12.464;2023-04-25T00:59:01;9.30;99.90
48454;DHT22;34261;55.678;12.464;2023-04-25T01:01:27;9.30;99.90
48454;DHT22;34261;55.678;12.464;2023-04-25T01:03:53;9.20;99.90
48454;DHT22;34261;55.678;12.464;2023-04-25T01:06:19;9.20;99.90
48454;DHT22;34261;55.678;12.464;2023-04-25T01:08:44;9.20;99.90
48454;DHT22;34261;55.678;12.464;2023-04-25T01:11:10;9.20;99.90
48454;DHT22;34261;55.678;12.464;2023-04-25T01:13:35;9.10;99.90
48454;DHT22;34261;55.678;12.464;2023-04-25T01:16:01;9.10;99.90
48454;DHT22;34261;55.678;12.464;2023-04-25T01:18:27;9.20;99.90
48454;DHT22;34261;55.678;12.464;2023-04-25T01:20:52;9.10;99.90
48454;DHT22;34261;55.678;12.464;2023-04-25T01:23:18;9.10;99.90
48454;DHT22;34261;55.678;12.464;2023-04-25T01:25:44;8.90;99.90
48454;DHT22;34261;55.678;12.464;2023-04-25T01:28:10;8.90;99.90
48454;DHT22;34261;55.678;12.464;2023-04-25T01:30:35;8.90;99.90
48454;DHT22;34261;55.678;12.464;2023-04-25T01:33:01;8.80;99.90
48454;DHT22;34261;55.678;12.464;2023-04-25T01:35:29;8.70;99.90
48454;DHT22;34261;55.678;12.464;2023-04-25T01:37:55;8.60;99.90
48454;DHT22;34261;55.678;12.464;2023-04-25T01:40:20;8.60;99.90
48454;DHT22;34261;55.678;12.464;2023-04-25T01:42:46;8.70;99.90
48454;DHT22;34261;55.678;12.464;2023-04-25T01:45:12;8.60;99.90
48454;DHT22;34261;55.678;12.464;2023-04-25T01:47:38;8.50;99.90
48454;DHT22;34261;55.678;12.464;2023-04-25T01:50:04;8.50;99.90
48454;DHT22;34261;55.678;12.464;2023-04-25T01:52:30;8.40;99.90
48454;DHT22;34261;55.678;12.464;2023-04-25T01:54:56;8.50;99.90
48454;DHT22;34261;55.678;12.464;2023-04-25T01:57:22;8.40;99.90
48454;DHT22;34261;55.678;12.464;2023-04-25T01:59:47;8.40;99.90
48454;DHT22;34261;55.678;12.464;2023-04-25T02:02:13;8.40;99.90
48454;DHT22;34261;55.678;12.464;2023-04-25T02:04:38;8.50;99.90
48454;DHT22;34261;55.678;12.464;2023-04-25T02:07:04;8.40;99.90
48454;DHT22;34261;55.678;12.464;2023-04-25T02:09:29;8.40;99.90
48454;DHT22;34261;55.678;12.464;2023-04-25T02:11:55;8.30;99.90
48454;DHT22;34261;55.678;12.464;2023-04-25T02:14:20;8.40;99.90
48454;DHT22;34261;55.678;12.464;2023-04-25T02:16:46;8.40;99.90
48454;DHT22;34261;55.678;12.464;2023-04-25T02:19:11;8.40;99.90
48454;DHT22;34261;55.678;12.464;2023-04-25T02:21:37;8.40;99.90
48454;DHT22;34261;55.678;12.464;2023-04-25T02:24:03;8.30;99.90
48454;DHT22;34261;55.678;12.464;2023-04-25T02:26:28;8.30;99.90
48454;DHT22;34261;55.678;12.464;2023-04-25T02:28:54;8.30;99.90
48454;DHT22;34261;55.678;12.464;2023-04-25T02:31:20;8.30;99.90
48454;DHT22;34261;55.678;12.464;2023-04-25T02:33:45;8.20;99.90
48454;DHT22;34261;55.678;12.464;2023-04-25T02:36:11;8.20;99.90
48454;DHT22;34261;55.678;12.464;2023-04-25T02:38:36;8.20;99.90
48454;DHT22;34261;55.678;12.464;2023-04-25T02:41:01;8.20;99.90
48454;DHT22;34261;55.678;12.464;2023-04-25T02:43:27;8.20;99.90
48454;DHT22;34261;55.678;12.464;2023-04-25T02:45:52;8.10;99.90
48454;DHT22;34261;55.678;12.464;2023-04-25T02:48:18;8.20;99.90
48454;DHT22;34261;55.678;12.464;2023-04-25T02:50:43;8.20;99.90
48454;DHT22;34261;55.678;12.464;2023-04-25T02:53:09;8.10;99.90
48454;DHT22;34261;55.678;12.464;2023-04-25T02:55:34;8.20;99.90
48454;DHT22;34261;55.678;12.464;2023-04-25T02:58:00;8.10;99.90
48454;DHT22;34261;55.678;12.464;2023-04-25T03:00:25;8.10;99.90
48454;DHT22;34261;55.678;12.464;2023-04-25T03:02:50;8.20;99.90
48454;DHT22;34261;55.678;12.464;2023-04-25T03:05:16;8.10;99.90
48454;DHT22;34261;55.678;12.464;2023-04-25T03:07:42;8.10;99.90
48454;DHT22;34261;55.678;12.464;2023-04-25T03:10:08;8.10;99.90
48454;DHT22;34261;55.678;12.464;2023-04-25T03:12:34;8.10;99.90
48454;DHT22;34261;55.678;12.464;2023-04-25T03:14:59;8.20;99.90
48454;DHT22;34261;55.678;12.464;2023-04-25T03:17:25;8.10;99.90
48454;DHT22;34261;55.678;12.464;2023-04-25T03:19:50;8.20;99.90
48454;DHT22;34261;55.678;12.464;2023-04-25T03:22:16;8.20;99.90
48454;DHT22;34261;55.678;12.464;2023-04-25T03:24:41;8.10;99.90
48454;DHT22;34261;55.678;12.464;2023-04-25T03:27:06;8.10;99.90
48454;DHT22;34261;55.678;12.464;2023-04-25T03:29:32;8.10;99.90
48454;DHT22;34261;55.678;12.464;2023-04-25T03:31:57;8.20;99.90
48454;DHT22;34261;55.678;12.464;2023-04-25T03:34:23;8.20;99.90
48454;DHT22;34261;55.678;12.464;2023-04-25T03:36:49;8.30;99.90
48454;DHT22;34261;55.678;12.464;2023-04-25T03:39:14;8.20;99.90
48454;DHT22;34261;55.678;12.464;2023-04-25T03:41:40;8.30;99.90
48454;DHT22;34261;55.678;12.464;2023-04-25T03:44:05;8.20;99.90
48454;DHT22;34261;55.678;12.464;2023-04-25T03:46:31;8.10;99.90
48454;DHT22;34261;55.678;12.464;2023-04-25T03:48:56;8.10;99.90
48454;DHT22;34261;55.678;12.464;2023-04-25T03:51:22;8.10;99.90
48454;DHT22;34261;55.678;12.464;2023-04-25T03:53:47;8.20;99.90
48454;DHT22;34261;55.678;12.464;2023-04-25T03:56:13;8.20;99.90
48454;DHT22;34261;55.678;12.464;2023-04-25T03:58:38;8.30;99.90
48454;DHT22;34261;55.678;12.464;2023-04-25T04:01:03;8.30;99.90
48454;DHT22;34261;55.678;12.464;2023-04-25T04:03:35;8.20;99.90
48454;DHT22;34261;55.678;12.464;2023-04-25T04:06:04;8.30;99.90
48454;DHT22;34261;55.678;12.464;2023-04-25T04:08:31;8.20;99.90
48454;DHT22;34261;55.678;12.464;2023-04-25T04:10:57;8.20;99.90
48454;DHT22;34261;55.678;12.464;2023-04-25T04:13:22;8.20;99.90
48454;DHT22;34261;55.678;12.464;2023-04-25T04:15:48;8.20;99.90
48454;DHT22;34261;55.678;12.464;2023-04-25T04:18:13;8.20;99.90
48454;DHT22;34261;55.678;12.464;2023-04-25T04:20:39;8.20;99.90
48454;DHT22;34261;55.678;12.464;2023-04-25T04:23:04;8.30;99.90
48454;DHT22;34261;55.678;12.464;2023-04-25T04:25:30;8.30;99.90
48454;DHT22;34261;55.678;12.464;2023-04-25T04:27:56;8.30;99.90
48454;DHT22;34261;55.678;12.464;2023-04-25T04:30:22;8.40;99.90
48454;DHT22;34261;55.678;12.464;2023-04-25T04:32:50;8.40;99.90
48454;DHT22;34261;55.678;12.464;2023-04-25T04:35:15;8.40;99.90
48454;DHT22;34261;55.678;12.464;2023-04-25T04:37:40;8.30;99.90
48454;DHT22;34261;55.678;12.464;2023-04-25T04:40:06;8.30;99.90
48454;DHT22;34261;55.678;12.464;2023-04-25T04:42:32;8.30;99.90
48454;DHT22;34261;55.678;12.464;2023-04-25T04:44:58;8.40;99.90
48454;DHT22;34261;55.678;12.464;2023-04-25T04:47:24;8.30;99.90
48454;DHT22;34261;55.678;12.464;2023-04-25T04:49:50;8.40;99.90
48454;DHT22;34261;55.678;12.464;2023-04-25T04:52:16;8.30;99.90
48454;DHT22;34261;55.678;12.464;2023-04-25T04:54:41;8.30;99.90
48454;DHT22;34261;55.678;12.464;2023-04-25T04:57:07;8.20;99.90
48454;DHT22;34261;55.678;12.464;2023-04-25T04:59:32;8.30;99.90
48454;DHT22;34261;55.678;12.464;2023-04-25T05:01:58;8.30;99.90
48454;DHT22;34261;55.678;12.464;2023-04-25T05:04:23;8.40;99.90
48454;DHT22;34261;55.678;12.464;2023-04-25T05:06:49;8.40;99.90
48454;DHT22;34261;55.678;12.464;2023-04-25T05:09:14;8.30;99.90
48454;DHT22;34261;55.678;12.464;2023-04-25T05:11:40;8.30;99.90
48454;DHT22;34261;55.678;12.464;2023-04-25T05:14:05;8.30;99.90
48454;DHT22;34261;55.678;12.464;2023-04-25T05:16:31;8.30;99.90
48454;DHT22;34261;55.678;12.464;2023-04-25T05:18:56;8.40;99.90
48454;DHT22;34261;55.678;12.464;2023-04-25T05:21:22;8.30;99.90
48454;DHT22;34261;55.678;12.464;2023-04-25T05:23:47;8.30;99.90
48454;DHT22;34261;55.678;12.464;2023-04-25T05:26:13;8.30;99.90
48454;DHT22;34261;55.678;12.464;2023-04-25T05:28:41;8.30;99.90
48454;DHT22;34261;55.678;12.464;2023-04-25T05:31:07;8.30;99.90
48454;DHT22;34261;55.678;12.464;2023-04-25T05:33:32;8.20;99.90
48454;DHT22;34261;55.678;12.464;2023-04-25T05:35:58;8.30;99.90
48454;DHT22;34261;55.678;12.464;2023-04-25T05:38:23;8.20;99.90
48454;DHT22;34261;55.678;12.464;2023-04-25T05:40:49;8.20;99.90
48454;DHT22;34261;55.678;12.464;2023-04-25T05:43:14;8.30;99.90
48454;DHT22;34261;55.678;12.464;2023-04-25T05:45:40;8.30;99.90
48454;DHT22;34261;55.678;12.464;2023-04-25T05:48:05;8.30;99.90
48454;DHT22;34261;55.678;12.464;2023-04-25T05:50:31;8.20;99.90
48454;DHT22;34261;55.678;12.464;2023-04-25T05:52:56;8.30;99.90
48454;DHT22;34261;55.678;12.464;2023-04-25T05:55:22;8.20;99.90
48454;DHT22;34261;55.678;12.464;2023-04-25T05:57:47;8.20;99.90
48454;DHT22;34261;55.678;12.464;2023-04-25T06:00:13;8.30;99.90
48454;DHT22;34261;55.678;12.464;2023-04-25T06:02:40;8.20;99.90
48454;DHT22;34261;55.678;12.464;2023-04-25T06:05:06;8.20;99.90
48454;DHT22;34261;55.678;12.464;2023-04-25T06:07:31;8.20;99.90
48454;DHT22;34261;55.678;12.464;2023-04-25T06:09:57;8.20;99.90
48454;DHT22;34261;55.678;12.464;2023-04-25T06:12:22;8.10;99.90
48454;DHT22;34261;55.678;12.464;2023-04-25T06:14:47;8.20;99.90
48454;DHT22;34261;55.678;12.464;2023-04-25T06:17:13;8.20;99.90
48454;DHT22;34261;55.678;12.464;2023-04-25T06:19:38;8.20;99.90
48454;DHT22;34261;55.678;12.464;2023-04-25T06:22:04;8.30;99.90
48454;DHT22;34261;55.678;12.464;2023-04-25T06:24:29;8.30;99.90
48454;DHT22;34261;55.678;12.464;2023-04-25T06:26:55;8.40;99.90
48454;DHT22;34261;55.678;12.464;2023-04-25T06:29:20;8.30;99.90
48454;DHT22;34261;55.678;12.464;2023-04-25T06:31:46;8.40;99.90
48454;DHT22;34261;55.678;12.464;2023-04-25T06:34:11;8.50;99.90
48454;DHT22;34261;55.678;12.464;2023-04-25T06:36:37;8.40;99.90
48454;DHT22;34261;55.678;12.464;2023-04-25T06:39:02;8.40;99.90
48454;DHT22;34261;55.678;12.464;2023-04-25T06:41:28;8.40;99.90
48454;DHT22;34261;55.678;12.464;2023-04-25T06:43:53;8.40;99.90
48454;DHT22;34261;55.678;12.464;2023-04-25T06:46:19;8.40;99.90
48454;DHT22;34261;55.678;12.464;2023-04-25T06:48:44;8.30;99.90
48454;DHT22;34261;55.678;12.464;2023-04-25T06:51:10;8.30;99.90
48454;DHT22;34261;55.678;12.464;2023-04-25T06:53:35;8.30;99.90
48454;DHT22;34261;55.678;12.464;2023-04-25T06:56:01;8.40;99.90
48454;DHT22;34261;55.678;12.464;2023-04-25T06:58:26;8.40;99.90
48454;DHT22;34261;55.678;12.464;2023-04-25T07:00:52;8.40;99.90
48454;DHT22;34261;55.678;12.464;2023-04-25T07:03:18;8.40;99.90
48454;DHT22;34261;55.678;12.464;2023-04-25T07:05:44;8.40;99.90
48454;DHT22;34261;55.678;12.464;2023-04-25T07:08:11;8.40;99.90
48454;DHT22;34261;55.678;12.464;2023-04-25T07:10:36;8.40;99.90
48454;DHT22;34261;55.678;12.464;2023-04-25T07:13:01;8.40;99.90
48454;DHT22;34261;55.678;12.464;2023-04-25T07:15:27;8.30;99.90
48454;DHT22;34261;55.678;12.464;2023-04-25T07:17:52;8.30;99.90
48454;DHT22;34261;55.678;12.464;2023-04-25T07:20:18;8.30;99.90
48454;DHT22;34261;55.678;12.464;2023-04-25T07:22:43;8.30;99.90
48454;DHT22;34261;55.678;12.464;2023-04-25T07:25:09;8.30;99.90
48454;DHT22;34261;55.678;12.464;2023-04-25T07:27:34;8.40;99.90
48454;DHT22;34261;55.678;12.464;2023-04-25T07:30:00;8.40;99.90
48454;DHT22;34261;55.678;12.464;2023-04-25T07:32:25;8.30;99.90
48454;DHT22;34261;55.678;12.464;2023-04-25T07:34:51;8.40;99.90
48454;DHT22;34261;55.678;12.464;2023-04-25T07:37:17;8.40;99.90
48454;DHT22;34261;55.678;12.464;2023-04-25T07:39:44;8.40;99.90
48454;DHT22;34261;55.678;12.464;2023-04-25T07:42:11;8.40;99.90
48454;DHT22;34261;55.678;12.464;2023-04-25T07:44:36;8.40;99.90
48454;DHT22;34261;55.678;12.464;2023-04-25T07:47:07;8.40;99.90
48454;DHT22;34261;55.678;12.464;2023-04-25T07:49:33;8.50;99.90
48454;DHT22;34261;55.678;12.464;2023-04-25T07:51:59;8.50;99.90
48454;DHT22;34261;55.678;12.464;2023-04-25T07:54:24;8.50;99.90
48454;DHT22;34261;55.678;12.464;2023-04-25T07:56:50;8.50;99.90
48454;DHT22;34261;55.678;12.464;2023-04-25T07:59:16;8.50;99.90
48454;DHT22;34261;55.678;12.464;2023-04-25T08:01:41;8.50;99.90
48454;DHT22;34261;55.678;12.464;2023-04-25T08:04:06;8.50;99.90
48454;DHT22;34261;55.678;12.464;2023-04-25T08:06:32;8.50;99.90
48454;DHT22;34261;55.678;12.464;2023-04-25T08:08:58;8.60;99.90
48454;DHT22;34261;55.678;12.464;2023-04-25T08:11:23;8.60;99.90
48454;DHT22;34261;55.678;12.464;2023-04-25T08:13:48;8.70;99.90
48454;DHT22;34261;55.678;12.464;2023-04-25T08:16:14;8.70;99.90
48454;DHT22;34261;55.678;12.464;2023-04-25T08:18:39;8.80;99.90
48454;DHT22;34261;55.678;12.464;2023-04-25T08:21:05;8.80;99.90
48454;DHT22;34261;55.678;12.464;2023-04-25T08:23:31;8.70;99.90
48454;DHT22;34261;55.678;12.464;2023-04-25T08:25:57;8.80;99.90
48454;DHT22;34261;55.678;12.464;2023-04-25T08:28:22;8.80;99.90
48454;DHT22;34261;55.678;12.464;2023-04-25T08:30:48;8.80;99.90
48454;DHT22;34261;55.678;12.464;2023-04-25T08:33:13;8.80;99.90
48454;DHT22;34261;55.678;12.464;2023-04-25T08:35:39;8.80;99.90
48454;DHT22;34261;55.678;12.464;2023-04-25T08:38:05;8.80;99.90
48454;DHT22;34261;55.678;12.464;2023-04-25T08:40:30;8.80;99.90
48454;DHT22;34261;55.678;12.464;2023-04-25T08:43:00;8.80;99.90
48454;DHT22;34261;55.678;12.464;2023-04-25T08:45:28;8.80;99.90
48454;DHT22;34261;55.678;12.464;2023-04-25T08:47:56;8.80;99.90
48454;DHT22;34261;55.678;12.464;2023-04-25T08:50:22;8.90;99.90
48454;DHT22;34261;55.678;12.464;2023-04-25T08:52:48;8.80;99.90
48454;DHT22;34261;55.678;12.464;2023-04-25T08:55:15;8.90;99.90
48454;DHT22;34261;55.678;12.464;2023-04-25T08:57:41;9.00;99.90
48454;DHT22;34261;55.678;12.464;2023-04-25T09:00:08;8.90;99.90
48454;DHT22;34261;55.678;12.464;2023-04-25T09:02:34;8.90;99.90
48454;DHT22;34261;55.678;12.464;2023-04-25T09:05:01;8.90;99.90
48454;DHT22;34261;55.678;12.464;2023-04-25T09:07:28;8.80;99.90
48454;DHT22;34261;55.678;12.464;2023-04-25T09:09:53;8.90;99.90
48454;DHT22;34261;55.678;12.464;2023-04-25T09:12:19;9.00;99.90
48454;DHT22;34261;55.678;12.464;2023-04-25T09:15:00;9.00;99.90
48454;DHT22;34261;55.678;12.464;2023-04-25T09:17:26;9.10;99.90
48454;DHT22;34261;55.678;12.464;2023-04-25T09:19:51;9.00;99.90
48454;DHT22;34261;55.678;12.464;2023-04-25T09:22:17;9.00;99.90
48454;DHT22;34261;55.678;12.464;2023-04-25T09:24:43;8.90;99.90
48454;DHT22;34261;55.678;12.464;2023-04-25T09:27:11;9.00;99.90
48454;DHT22;34261;55.678;12.464;2023-04-25T09:29:37;9.20;99.90
48454;DHT22;34261;55.678;12.464;2023-04-25T09:32:10;9.20;99.90
48454;DHT22;34261;55.678;12.464;2023-04-25T09:34:43;9.20;99.90
48454;DHT22;34261;55.678;12.464;2023-04-25T09:37:09;9.20;99.90
48454;DHT22;34261;55.678;12.464;2023-04-25T09:39:39;9.30;99.90
48454;DHT22;34261;55.678;12.464;2023-04-25T09:42:05;9.40;99.90
48454;DHT22;34261;55.678;12.464;2023-04-25T09:44:30;9.40;99.90
48454;DHT22;34261;55.678;12.464;2023-04-25T09:46:56;9.40;99.90
48454;DHT22;34261;55.678;12.464;2023-04-25T09:49:22;9.50;99.90
48454;DHT22;34261;55.678;12.464;2023-04-25T09:51:57;9.50;99.90
48454;DHT22;34261;55.678;12.464;2023-04-25T09:54:23;9.60;99.90
48454;DHT22;34261;55.678;12.464;2023-04-25T09:56:49;9.50;99.90
48454;DHT22;34261;55.678;12.464;2023-04-25T09:59:16;9.30;99.90
48454;DHT22;34261;55.678;12.464;2023-04-25T10:01:43;9.20;99.90
48454;DHT22;34261;55.678;12.464;2023-04-25T10:04:10;9.30;99.90
48454;DHT22;34261;55.678;12.464;2023-04-25T10:06:35;9.30;99.90
48454;DHT22;34261;55.678;12.464;2023-04-25T10:09:02;9.30;99.90
48454;DHT22;34261;55.678;12.464;2023-04-25T10:11:29;9.30;99.90
48454;DHT22;34261;55.678;12.464;2023-04-25T10:13:55;9.40;99.90
48454;DHT22;34261;55.678;12.464;2023-04-25T10:16:21;9.50;99.90
48454;DHT22;34261;55.678;12.464;2023-04-25T10:18:47;9.60;99.90
48454;DHT22;34261;55.678;12.464;2023-04-25T10:21:13;9.60;99.90
48454;DHT22;34261;55.678;12.464;2023-04-25T10:23:40;9.80;99.90
48454;DHT22;34261;55.678;12.464;2023-04-25T10:26:06;9.80;99.90
48454;DHT22;34261;55.678;12.464;2023-04-25T10:31:22;9.60;99.90
48454;DHT22;34261;55.678;12.464;2023-04-25T10:33:48;9.60;99.90
48454;DHT22;34261;55.678;12.464;2023-04-25T10:36:15;9.70;99.90
48454;DHT22;34261;55.678;12.464;2023-04-25T10:38:42;9.70;99.90
48454;DHT22;34261;55.678;12.464;2023-04-25T10:41:09;9.80;99.90
48454;DHT22;34261;55.678;12.464;2023-04-25T10:46:01;9.80;99.90
48454;DHT22;34261;55.678;12.464;2023-04-25T10:48:27;10.10;99.90
48454;DHT22;34261;55.678;12.464;2023-04-25T10:51:26;10.10;99.90
48454;DHT22;34261;55.678;12.464;2023-04-25T10:53:56;10.00;99.90
48454;DHT22;34261;55.678;12.464;2023-04-25T10:56:22;10.00;99.90
48454;DHT22;34261;55.678;12.464;2023-04-25T10:58:48;9.90;99.90
48454;DHT22;34261;55.678;12.464;2023-04-25T11:01:14;10.00;99.90
48454;DHT22;34261;55.678;12.464;2023-04-25T11:03:41;10.00;99.90
48454;DHT22;34261;55.678;12.464;2023-04-25T11:06:10;10.00;99.90
48454;DHT22;34261;55.678;12.464;2023-04-25T11:08:45;9.80;99.90
48454;DHT22;34261;55.678;12.464;2023-04-25T11:11:12;10.00;99.90
48454;DHT22;34261;55.678;12.464;2023-04-25T11:13:38;10.00;99.90
48454;DHT22;34261;55.678;12.464;2023-04-25T11:16:06;10.10;99.90
48454;DHT22;34261;55.678;12.464;2023-04-25T11:18:32;10.30;99.90
48454;DHT22;34261;55.678;12.464;2023-04-25T11:20:59;10.30;99.90
48454;DHT22;34261;55.678;12.464;2023-04-25T11:23:25;10.30;99.90
48454;DHT22;34261;55.678;12.464;2023-04-25T11:25:51;10.30;99.90
48454;DHT22;34261;55.678;12.464;2023-04-25T11:28:21;10.20;99.90
48454;DHT22;34261;55.678;12.464;2023-04-25T11:30:48;10.20;99.90
48454;DHT22;34261;55.678;12.464;2023-04-25T11:33:13;10.10;99.90
48454;DHT22;34261;55.678;12.464;2023-04-25T11:35:40;10.20;99.60
48454;DHT22;34261;55.678;12.464;2023-04-25T11:38:05;10.20;99.40
48454;DHT22;34261;55.678;12.464;2023-04-25T11:40:31;10.30;99.80
48454;DHT22;34261;55.678;12.464;2023-04-25T11:42:59;10.30;99.90
48454;DHT22;34261;55.678;12.464;2023-04-25T11:45:25;10.40;99.90
48454;DHT22;34261;55.678;12.464;2023-04-25T11:47:50;10.50;99.90
48454;DHT22;34261;55.678;12.464;2023-04-25T11:50:16;10.50;99.20
48454;DHT22;34261;55.678;12.464;2023-04-25T11:52:42;10.40;97.80
48454;DHT22;34261;55.678;12.464;2023-04-25T11:55:09;10.40;98.10
48454;DHT22;34261;55.678;12.464;2023-04-25T11:57:35;10.30;97.60
48454;DHT22;34261;55.678;12.464;2023-04-25T12:00:07;10.40;97.70
48454;DHT22;34261;55.678;12.464;2023-04-25T12:02:37;10.50;98.30
48454;DHT22;34261;55.678;12.464;2023-04-25T12:05:05;10.60;97.90
48454;DHT22;34261;55.678;12.464;2023-04-25T12:07:31;10.70;97.10
48454;DHT22;34261;55.678;12.464;2023-04-25T12:09:56;10.70;97.30
48454;DHT22;34261;55.678;12.464;2023-04-25T12:12:26;10.60;97.30
48454;DHT22;34261;55.678;12.464;2023-04-25T12:14:52;10.70;97.60
48454;DHT22;34261;55.678;12.464;2023-04-25T12:17:17;10.80;98.00
48454;DHT22;34261;55.678;12.464;2023-04-25T12:19:43;10.60;97.80
48454;DHT22;34261;55.678;12.464;2023-04-25T12:22:22;10.70;97.80
48454;DHT22;34261;55.678;12.464;2023-04-25T12:24:48;10.70;96.60
48454;DHT22;34261;55.678;12.464;2023-04-25T12:27:14;10.70;96.60
48454;DHT22;34261;55.678;12.464;2023-04-25T12:29:49;10.50;96.50
48454;DHT22;34261;55.678;12.464;2023-04-25T12:32:16;10.50;96.90
48454;DHT22;34261;55.678;12.464;2023-04-25T12:34:42;10.50;97.00
48454;DHT22;34261;55.678;12.464;2023-04-25T12:37:07;10.50;97.00
48454;DHT22;34261;55.678;12.464;2023-04-25T12:39:33;10.30;97.40
48454;DHT22;34261;55.678;12.464;2023-04-25T12:41:58;10.20;98.30
48454;DHT22;34261;55.678;12.464;2023-04-25T12:44:24;10.10;98.90
48454;DHT22;34261;55.678;12.464;2023-04-25T12:46:50;10.00;99.10
48454;DHT22;34261;55.678;12.464;2023-04-25T12:49:16;9.90;99.70
48454;DHT22;34261;55.678;12.464;2023-04-25T12:51:41;9.90;99.50
48454;DHT22;34261;55.678;12.464;2023-04-25T12:54:07;10.00;99.50
48454;DHT22;34261;55.678;12.464;2023-04-25T12:56:33;10.00;99.30
48454;DHT22;34261;55.678;12.464;2023-04-25T12:58:59;10.20;99.70
48454;DHT22;34261;55.678;12.464;2023-04-25T13:01:25;10.40;99.30
48454;DHT22;34261;55.678;12.464;2023-04-25T13:03:50;10.50;98.90
48454;DHT22;34261;55.678;12.464;2023-04-25T13:06:16;10.80;99.20
48454;DHT22;34261;55.678;12.464;2023-04-25T13:08:42;10.90;98.60
48454;DHT22;34261;55.678;12.464;2023-04-25T13:14:11;10.80;98.70
48454;DHT22;34261;55.678;12.464;2023-04-25T13:16:36;10.60;98.70
48454;DHT22;34261;55.678;12.464;2023-04-25T13:19:02;10.50;98.90
48454;DHT22;34261;55.678;12.464;2023-04-25T13:21:29;10.50;99.10
48454;DHT22;34261;55.678;12.464;2023-04-25T13:23:55;10.60;98.90
48454;DHT22;34261;55.678;12.464;2023-04-25T13:26:21;11.00;98.40
48454;DHT22;34261;55.678;12.464;2023-04-25T13:28:46;11.20;98.60
48454;DHT22;34261;55.678;12.464;2023-04-25T13:31:11;11.10;97.50
48454;DHT22;34261;55.678;12.464;2023-04-25T13:33:37;11.10;97.20
48454;DHT22;34261;55.678;12.464;2023-04-25T13:36:02;10.80;97.40
48454;DHT22;34261;55.678;12.464;2023-04-25T13:38:28;10.80;97.90
48454;DHT22;34261;55.678;12.464;2023-04-25T13:40:53;11.00;98.30
48454;DHT22;34261;55.678;12.464;2023-04-25T13:43:22;11.10;98.40
48454;DHT22;34261;55.678;12.464;2023-04-25T13:45:50;11.30;98.20
48454;DHT22;34261;55.678;12.464;2023-04-25T13:48:17;11.20;98.10
48454;DHT22;34261;55.678;12.464;2023-04-25T13:50:43;11.10;98.30
48454;DHT22;34261;55.678;12.464;2023-04-25T13:53:08;11.00;98.30
48454;DHT22;34261;55.678;12.464;2023-04-25T13:55:34;10.90;98.50
48454;DHT22;34261;55.678;12.464;2023-04-25T13:58:03;11.10;98.40
48454;DHT22;34261;55.678;12.464;2023-04-25T14:00:33;11.50;97.70
48454;DHT22;34261;55.678;12.464;2023-04-25T14:02:59;11.30;97.30
48454;DHT22;34261;55.678;12.464;2023-04-25T14:05:24;11.00;97.60
48454;DHT22;34261;55.678;12.464;2023-04-25T14:07:53;11.00;98.00
48454;DHT22;34261;55.678;12.464;2023-04-25T14:10:18;10.90;98.30
48454;DHT22;34261;55.678;12.464;2023-04-25T14:12:44;11.00;98.80
48454;DHT22;34261;55.678;12.464;2023-04-25T14:15:11;11.40;98.70
48454;DHT22;34261;55.678;12.464;2023-04-25T14:17:36;11.40;97.30
48454;DHT22;34261;55.678;12.464;2023-04-25T14:20:04;11.20;97.40
48454;DHT22;34261;55.678;12.464;2023-04-25T14:22:31;11.00;97.70
48454;DHT22;34261;55.678;12.464;2023-04-25T14:24:56;10.90;98.30
48454;DHT22;34261;55.678;12.464;2023-04-25T14:27:22;10.70;98.70
48454;DHT22;34261;55.678;12.464;2023-04-25T14:29:47;10.50;99.30
48454;DHT22;34261;55.678;12.464;2023-04-25T14:32:14;10.40;99.90
48454;DHT22;34261;55.678;12.464;2023-04-25T14:34:41;10.40;99.90
48454;DHT22;34261;55.678;12.464;2023-04-25T14:37:07;10.30;99.90
48454;DHT22;34261;55.678;12.464;2023-04-25T14:39:32;10.20;99.90
48454;DHT22;34261;55.678;12.464;2023-04-25T14:41:58;10.20;99.90
48454;DHT22;34261;55.678;12.464;2023-04-25T14:44:23;10.40;99.90
48454;DHT22;34261;55.678;12.464;2023-04-25T14:46:50;10.30;99.90
48454;DHT22;34261;55.678;12.464;2023-04-25T14:49:17;10.30;99.90
48454;DHT22;34261;55.678;12.464;2023-04-25T14:51:42;10.40;99.90
48454;DHT22;34261;55.678;12.464;2023-04-25T14:54:07;10.40;99.70
48454;DHT22;34261;55.678;12.464;2023-04-25T14:56:33;10.50;99.90
48454;DHT22;34261;55.678;12.464;2023-04-25T14:58:58;10.60;99.70
48454;DHT22;34261;55.678;12.464;2023-04-25T15:01:24;10.70;99.30
48454;DHT22;34261;55.678;12.464;2023-04-25T15:03:49;10.70;99.60
48454;DHT22;34261;55.678;12.464;2023-04-25T15:06:16;10.60;99.90
48454;DHT22;34261;55.678;12.464;2023-04-25T15:08:41;10.50;99.90
48454;DHT22;34261;55.678;12.464;2023-04-25T15:11:07;10.50;99.90
48454;DHT22;34261;55.678;12.464;2023-04-25T15:13:32;10.50;99.90
48454;DHT22;34261;55.678;12.464;2023-04-25T15:15:59;10.50;99.90
48454;DHT22;34261;55.678;12.464;2023-04-25T15:18:25;10.50;99.90
48454;DHT22;34261;55.678;12.464;2023-04-25T15:20:51;10.40;99.90
48454;DHT22;34261;55.678;12.464;2023-04-25T15:23:22;10.50;99.90
48454;DHT22;34261;55.678;12.464;2023-04-25T15:25:49;10.70;99.90